createdAt,value
2023-04-26T00:02:22.860Z,11.01
2023-04-26T00:04:58.186Z,11.02
2023-04-26T00:08:05.856Z,11.04
2023-04-26T00:10:47.410Z,11.05
2023-04-26T00:13:14.630Z,11.07
2023-04-26T00:15:42.077Z,11.08
2023-04-26T00:18:11.651Z,11.11
2023-04-26T00:20:39.665Z,11.14
2023-04-26T00:23:10.247Z,11.15
2023-04-26T00:25:46.969Z,11.17
2023-04-26T00:28:19.061Z,11.16
2023-04-26T00:30:49.184Z,11.15
2023-04-26T00:33:16.191Z,11.14
2023-04-26T00:35:43.555Z,11.18
2023-04-26T00:38:10.956Z,11.17
2023-04-26T00:40:38.410Z,11.15
2023-04-26T00:43:06.981Z,11.12
2023-04-26T00:45:34.998Z,11.13
2023-04-26T00:48:03.662Z,11.14
2023-04-26T00:50:31.521Z,11.15
2023-04-26T00:52:59.976Z,11.15
2023-04-26T00:55:27.647Z,11.16
2023-04-26T00:57:55.513Z,11.16
2023-04-26T01:00:23.007Z,11.16
2023-04-26T01:02:50.304Z,11.15
2023-04-26T01:05:21.846Z,11.14
2023-04-26T01:07:49.236Z,11.12
2023-04-26T01:10:18.385Z,11.13
2023-04-26T01:12:45.870Z,11.12
2023-04-26T01:15:13.539Z,11.14
2023-04-26T01:17:40.633Z,11.15
2023-04-26T01:20:10.654Z,11.16
2023-04-26T01:22:37.757Z,11.17
2023-04-26T01:25:12.309Z,11.19
2023-04-26T01:27:39.991Z,11.22
2023-04-26T01:30:08.577Z,11.23
2023-04-26T01:32:35.906Z,11.23
2023-04-26T01:35:03.646Z,11.23
2023-04-26T01:37:31.764Z,11.24
2023-04-26T01:39:59.942Z,11.23
2023-04-26T01:42:28.331Z,11.22
2023-04-26T01:45:00.466Z,11.21
2023-04-26T01:47:28.066Z,11.21
2023-04-26T01:49:55.677Z,11.19
2023-04-26T01:52:23.311Z,11.21
2023-04-26T01:54:51.460Z,11.23
2023-04-26T01:57:18.427Z,11.24
2023-04-26T01:59:45.866Z,11.25
2023-04-26T02:02:16.921Z,11.23
2023-04-26T02:04:44.636Z,11.23
2023-04-26T02:07:11.717Z,11.26
2023-04-26T02:09:39.154Z,11.29
2023-04-26T02:12:06.301Z,11.31
2023-04-26T02:14:35.282Z,11.32
2023-04-26T02:17:02.345Z,11.31
2023-04-26T02:19:29.873Z,11.29
2023-04-26T02:21:58.525Z,11.28
2023-04-26T02:24:26.356Z,11.25
2023-04-26T02:26:54.925Z,11.25
2023-04-26T02:29:32.634Z,11.22
2023-04-26T02:32:07.906Z,11.22
2023-04-26T02:34:36.036Z,11.18
2023-04-26T02:37:03.056Z,11.19
2023-04-26T02:39:32.399Z,11.21
2023-04-26T02:41:59.700Z,11.22
2023-04-26T02:44:30.990Z,11.22
2023-04-26T02:46:58.402Z,11.22
2023-04-26T02:49:26.070Z,11.20
2023-04-26T02:51:53.103Z,11.21
2023-04-26T02:54:20.516Z,11.19
2023-04-26T02:56:47.617Z,11.19
2023-04-26T02:59:15.686Z,11.20
2023-04-26T03:01:43.310Z,11.21
2023-04-26T03:04:11.703Z,11.22
2023-04-26T03:06:38.892Z,11.20
2023-04-26T03:09:06.277Z,11.23
2023-04-26T03:11:33.427Z,11.25
2023-04-26T03:14:00.765Z,11.26
2023-04-26T03:16:28.499Z,11.26
2023-04-26T03:18:56.041Z,11.33
2023-04-26T03:21:23.132Z,11.35
2023-04-26T03:23:53.913Z,11.39
2023-04-26T03:26:23.018Z,11.39
2023-04-26T03:28:52.977Z,11.43
2023-04-26T03:31:22.064Z,11.44
2023-04-26T03:33:50.255Z,11.46
2023-04-26T03:36:17.487Z,11.48
2023-04-26T03:38:44.858Z,11.52
2023-04-26T03:41:13.065Z,11.51
2023-04-26T03:43:41.311Z,11.57
2023-04-26T03:46:08.349Z,11.57
2023-04-26T03:48:36.343Z,11.61
2023-04-26T03:51:04.261Z,11.63
2023-04-26T03:53:33.901Z,11.66
2023-04-26T04:00:00.134Z,11.70
2023-04-26T04:05:35.059Z,11.70
2023-04-26T04:08:04.941Z,11.72
2023-04-26T04:10:32.027Z,11.75
2023-04-26T04:12:59.470Z,11.80
2023-04-26T04:15:27.148Z,11.80
2023-04-26T04:17:55.168Z,11.81
2023-04-26T04:20:23.815Z,11.80
2023-04-26T04:22:52.975Z,11.80
2023-04-26T04:25:31.143Z,11.82
2023-04-26T04:28:05.861Z,11.84
2023-04-26T04:30:33.495Z,11.88
2023-04-26T04:33:06.886Z,11.90
2023-04-26T04:35:37.295Z,11.92
2023-04-26T04:38:14.140Z,11.92
2023-04-26T04:40:41.946Z,11.94
2023-04-26T04:43:11.042Z,11.99
2023-04-26T04:45:39.065Z,11.98
2023-04-26T04:48:10.599Z,12.00
2023-04-26T04:50:46.370Z,12.05
2023-04-26T04:53:18.588Z,12.07
2023-04-26T04:55:49.152Z,12.06
2023-04-26T04:58:20.386Z,12.03
2023-04-26T05:00:50.821Z,12.01
2023-04-26T05:03:18.980Z,11.99
2023-04-26T05:05:46.174Z,11.97
2023-04-26T05:08:14.927Z,11.99
2023-04-26T05:10:42.140Z,12.05
2023-04-26T05:13:09.492Z,12.09
2023-04-26T05:15:37.578Z,12.15
2023-04-26T05:18:07.614Z,12.18
2023-04-26T05:20:36.146Z,12.18
2023-04-26T05:23:12.229Z,12.20
2023-04-26T05:25:44.204Z,12.25
2023-04-26T05:28:16.132Z,12.27
2023-04-26T05:30:43.601Z,12.22
2023-04-26T05:33:11.154Z,12.18
2023-04-26T05:35:50.681Z,12.21
2023-04-26T05:38:19.148Z,12.28
2023-04-26T05:40:48.387Z,12.28
2023-04-26T05:43:16.069Z,12.29
2023-04-26T05:45:55.645Z,12.30
2023-04-26T05:48:27.818Z,12.31
2023-04-26T05:50:55.668Z,12.26
2023-04-26T05:53:23.054Z,12.23
2023-04-26T05:55:50.218Z,12.21
2023-04-26T05:58:17.795Z,12.27
2023-04-26T06:00:46.276Z,12.35
2023-04-26T06:03:13.935Z,12.50
2023-04-26T06:05:42.597Z,12.59
2023-04-26T06:08:10.122Z,12.66
2023-04-26T06:10:40.793Z,12.69
2023-04-26T06:13:14.077Z,12.67
2023-04-26T06:15:42.089Z,12.67
2023-04-26T06:18:10.293Z,12.68
2023-04-26T06:20:43.467Z,12.67
2023-04-26T06:23:14.794Z,12.64
2023-04-26T06:25:46.635Z,12.67
2023-04-26T06:28:14.738Z,12.90
2023-04-26T06:30:45.984Z,13.12
2023-04-26T06:33:14.887Z,13.38
2023-04-26T06:35:43.279Z,13.62
2023-04-26T06:38:13.242Z,13.78
2023-04-26T06:40:40.442Z,13.87
2023-04-26T06:43:09.827Z,13.89
2023-04-26T06:45:37.121Z,14.03
2023-04-26T06:48:05.429Z,14.27
2023-04-26T06:50:32.621Z,14.38
2023-04-26T06:53:00.046Z,14.48
2023-04-26T06:55:27.186Z,14.57
2023-04-26T06:57:54.545Z,14.50
2023-04-26T07:00:22.222Z,14.43
2023-04-26T07:02:49.793Z,14.44
2023-04-26T07:05:17.578Z,14.43
2023-04-26T07:07:45.237Z,14.62
2023-04-26T07:10:18.392Z,14.83
2023-04-26T07:12:46.060Z,14.82
2023-04-26T07:15:13.044Z,14.75
2023-04-26T07:17:40.442Z,14.68
2023-04-26T07:20:08.376Z,14.72
2023-04-26T07:22:36.023Z,14.74
2023-04-26T07:25:03.186Z,14.75
2023-04-26T07:27:31.554Z,14.97
2023-04-26T07:29:58.503Z,15.25
2023-04-26T07:32:26.267Z,15.18
2023-04-26T07:34:53.720Z,15.20
2023-04-26T07:37:21.289Z,15.36
2023-04-26T07:39:48.446Z,15.65
2023-04-26T07:42:16.616Z,15.76
2023-04-26T07:44:43.687Z,15.85
2023-04-26T07:47:14.528Z,15.85
2023-04-26T07:49:41.854Z,15.93
2023-04-26T07:52:09.759Z,15.81
2023-04-26T07:54:37.230Z,15.77
2023-04-26T07:57:04.711Z,15.76
2023-04-26T07:59:32.676Z,15.82
2023-04-26T08:02:00.170Z,15.97
2023-04-26T08:04:35.273Z,16.24
2023-04-26T08:07:03.123Z,16.15
2023-04-26T08:09:30.946Z,16.10
2023-04-26T08:11:58.740Z,16.18
2023-04-26T08:14:26.045Z,16.44
2023-04-26T08:16:53.753Z,16.68
2023-04-26T08:19:21.595Z,16.71
2023-04-26T08:21:49.089Z,16.65
2023-04-26T08:24:16.139Z,16.64
2023-04-26T08:26:43.578Z,16.38
2023-04-26T08:29:10.763Z,16.24
2023-04-26T08:31:38.482Z,16.18
2023-04-26T08:34:06.090Z,16.16
2023-04-26T08:36:37.152Z,16.23
2023-04-26T08:39:05.043Z,16.29
2023-04-26T08:41:37.452Z,16.48
2023-04-26T08:44:05.763Z,16.77
2023-04-26T08:46:59.437Z,16.95
2023-04-26T08:49:47.783Z,17.01
2023-04-26T08:52:17.336Z,17.04
2023-04-26T08:54:46.970Z,17.17
2023-04-26T08:57:15.624Z,17.26
2023-04-26T08:59:44.366Z,17.34
2023-04-26T09:02:17.426Z,17.67
2023-04-26T09:04:48.534Z,18.89
2023-04-26T09:07:35.895Z,19.59
2023-04-26T09:10:04.794Z,19.26
2023-04-26T09:12:32.633Z,18.80
2023-04-26T09:15:01.416Z,18.20
2023-04-26T09:17:34.492Z,17.75
2023-04-26T09:20:07.945Z,17.48
2023-04-26T09:22:37.503Z,17.19
2023-04-26T09:25:07.270Z,16.85
2023-04-26T09:27:38.127Z,16.51
2023-04-26T09:30:11.721Z,16.28
2023-04-26T09:32:53.839Z,16.13
2023-04-26T09:35:35.341Z,16.02
2023-04-26T09:38:11.046Z,15.89
2023-04-26T09:40:43.547Z,15.77
2023-04-26T09:43:22.038Z,15.62
2023-04-26T09:45:57.010Z,15.60
2023-04-26T09:48:30.566Z,15.63
2023-04-26T09:51:03.685Z,15.64
2023-04-26T09:53:32.395Z,15.66
2023-04-26T09:56:19.889Z,15.69
2023-04-26T09:58:47.253Z,15.96
2023-04-26T10:01:19.191Z,16.87
2023-04-26T10:03:47.497Z,19.02
2023-04-26T10:06:15.653Z,20.74
2023-04-26T10:08:43.888Z,20.35
2023-04-26T10:11:11.831Z,21.01
2023-04-26T10:13:42.264Z,21.71
2023-04-26T10:16:12.690Z,23.08
2023-04-26T10:18:40.686Z,23.93
2023-04-26T10:21:11.385Z,22.96
2023-04-26T10:23:39.881Z,21.57
2023-04-26T10:26:07.749Z,21.01
2023-04-26T10:28:41.834Z,21.24
2023-04-26T10:31:09.040Z,20.79
2023-04-26T10:33:36.556Z,20.76
2023-04-26T10:36:26.848Z,20.20
2023-04-26T10:39:23.403Z,19.21
2023-04-26T10:41:50.654Z,19.51
2023-04-26T10:44:57.659Z,19.28
2023-04-26T10:47:28.734Z,18.97
2023-04-26T10:50:05.821Z,18.60
2023-04-26T10:52:34.245Z,18.36
2023-04-26T10:57:56.043Z,18.75
2023-04-26T11:00:33.190Z,18.36
2023-04-26T11:03:04.127Z,18.26
2023-04-26T11:05:38.728Z,20.09
2023-04-26T11:08:19.955Z,21.55
2023-04-26T11:11:11.951Z,22.85
2023-04-26T11:13:40.776Z,23.43
2023-04-26T11:16:10.537Z,22.97
2023-04-26T11:18:40.498Z,22.81
2023-04-26T11:21:08.946Z,22.53
2023-04-26T11:23:36.771Z,22.27
2023-04-26T11:26:06.860Z,21.83
2023-04-26T11:28:36.144Z,20.99
2023-04-26T11:31:04.741Z,21.15
2023-04-26T11:33:34.442Z,21.18
2023-04-26T11:36:02.343Z,21.14
2023-04-26T11:38:30.193Z,21.03
2023-04-26T11:41:02.595Z,21.33
2023-04-26T11:43:40.089Z,21.38
2023-04-26T11:46:10.017Z,21.53
2023-04-26T11:51:34.912Z,21.85
2023-04-26T11:54:02.383Z,21.36
2023-04-26T11:56:29.483Z,20.93
2023-04-26T11:58:58.510Z,20.82
2023-04-26T12:01:27.951Z,20.97
2023-04-26T12:04:00.062Z,20.99
2023-04-26T12:06:44.157Z,20.35
2023-04-26T12:09:12.122Z,20.08
2023-04-26T12:11:40.374Z,21.20
2023-04-26T12:14:11.653Z,21.32
2023-04-26T12:16:38.909Z,21.22
2023-04-26T12:19:07.355Z,20.78
2023-04-26T12:21:42.666Z,19.92
2023-04-26T12:24:36.969Z,19.34
2023-04-26T12:27:07.186Z,19.13
2023-04-26T12:29:35.084Z,18.65
2023-04-26T12:32:02.742Z,17.87
2023-04-26T12:34:40.057Z,17.36
2023-04-26T12:37:15.820Z,17.48
2023-04-26T12:42:57.174Z,16.63
2023-04-26T12:45:28.147Z,16.58
2023-04-26T12:47:56.483Z,16.53
2023-04-26T12:50:23.814Z,16.28
2023-04-26T12:52:51.369Z,16.12
2023-04-26T12:55:20.457Z,16.47
2023-04-26T12:57:48.128Z,16.38
2023-04-26T13:00:21.875Z,16.05
2023-04-26T13:02:49.625Z,15.88
2023-04-26T13:05:18.902Z,15.72
2023-04-26T13:07:46.407Z,15.49
2023-04-26T13:10:13.900Z,15.43
2023-04-26T13:12:41.577Z,15.35
2023-04-26T13:15:09.404Z,15.32
2023-04-26T13:17:38.105Z,15.22
2023-04-26T13:20:07.145Z,15.19
2023-04-26T13:22:34.961Z,15.27
2023-04-26T13:25:27.551Z,15.16
2023-04-26T13:27:55.624Z,15.10
2023-04-26T13:30:22.616Z,15.05
2023-04-26T13:32:50.275Z,14.98
2023-04-26T13:35:17.376Z,14.83
2023-04-26T13:37:44.863Z,14.59
2023-04-26T13:40:12.445Z,14.38
2023-04-26T13:42:40.123Z,14.34
2023-04-26T13:45:09.567Z,14.35
2023-04-26T13:47:37.530Z,14.43
2023-04-26T13:50:04.934Z,14.54
2023-04-26T13:55:15.625Z,14.43
2023-04-26T13:57:43.178Z,14.49
2023-04-26T14:02:54.721Z,14.51
2023-04-26T14:05:22.163Z,14.61
2023-04-26T14:07:49.787Z,14.60
2023-04-26T14:10:16.933Z,14.45
2023-04-26T14:12:44.523Z,14.34
2023-04-26T14:15:12.777Z,14.30
2023-04-26T14:17:40.121Z,14.19
2023-04-26T14:20:10.518Z,14.03
2023-04-26T14:22:38.171Z,13.85
2023-04-26T14:25:06.029Z,13.74
2023-04-26T14:27:34.810Z,13.49
2023-04-26T14:30:01.903Z,13.27
2023-04-26T14:32:29.304Z,12.93
2023-04-26T14:34:56.414Z,12.70
2023-04-26T14:37:24.186Z,12.63
2023-04-26T14:39:53.985Z,12.58
2023-04-26T14:42:24.560Z,12.46
2023-04-26T14:44:52.779Z,12.40
2023-04-26T14:47:22.693Z,12.34
2023-04-26T14:49:49.764Z,12.38
2023-04-26T14:52:17.320Z,12.45
2023-04-26T14:54:44.538Z,12.51
2023-04-26T14:57:12.079Z,12.54
2023-04-26T14:59:39.131Z,12.57
2023-04-26T15:02:07.396Z,12.50
2023-04-26T15:04:36.807Z,12.30
2023-04-26T15:07:04.550Z,12.21
2023-04-26T15:09:32.541Z,12.11
2023-04-26T15:12:00.017Z,12.07
2023-04-26T15:14:29.035Z,12.05
2023-04-26T15:16:56.782Z,12.02
2023-04-26T15:19:23.946Z,11.99
2023-04-26T15:21:51.424Z,12.05
2023-04-26T15:24:19.489Z,12.00
2023-04-26T15:26:51.083Z,11.97
2023-04-26T15:29:20.131Z,11.92
2023-04-26T15:31:47.843Z,11.87
2023-04-26T15:34:15.172Z,11.79
2023-04-26T15:36:43.085Z,11.69
2023-04-26T15:39:20.156Z,11.68
2023-04-26T15:41:49.910Z,11.62
2023-04-26T15:44:17.788Z,11.62
2023-04-26T15:46:46.195Z,11.61
2023-04-26T15:49:13.432Z,11.65
2023-04-26T15:51:40.929Z,11.66
2023-04-26T15:54:08.195Z,11.66
2023-04-26T15:56:38.107Z,11.64
2023-04-26T15:59:05.155Z,11.64
2023-04-26T16:01:32.863Z,11.61
2023-04-26T16:04:00.152Z,11.55
2023-04-26T16:09:39.398Z,11.37
2023-04-26T16:12:21.506Z,11.28
2023-04-26T16:14:51.412Z,11.22
2023-04-26T16:17:18.515Z,11.16
2023-04-26T16:19:46.182Z,11.15
2023-04-26T16:22:13.230Z,11.13
2023-04-26T16:24:40.707Z,11.09
2023-04-26T16:27:21.497Z,11.04
2023-04-26T16:29:51.958Z,10.97
2023-04-26T16:32:47.715Z,10.95
2023-04-26T16:35:15.878Z,10.96
2023-04-26T16:37:44.854Z,10.87
2023-04-26T16:40:15.482Z,10.79
2023-04-26T16:42:43.661Z,10.73
2023-04-26T16:45:15.463Z,10.71
2023-04-26T16:47:43.562Z,10.64
2023-04-26T16:50:13.900Z,10.56
2023-04-26T16:52:41.031Z,10.53
2023-04-26T16:55:10.553Z,10.53
2023-04-26T16:57:45.471Z,10.49
2023-04-26T17:00:13.813Z,10.51
2023-04-26T17:02:42.175Z,10.48
2023-04-26T17:05:11.833Z,10.44
2023-04-26T17:07:40.764Z,10.42
2023-04-26T17:10:08.754Z,10.35
2023-04-26T17:12:37.206Z,10.24
2023-04-26T17:15:05.618Z,10.16
2023-04-26T17:17:36.938Z,10.14
2023-04-26T17:20:11.322Z,10.11
2023-04-26T17:22:39.145Z,10.10
2023-04-26T17:25:07.338Z,10.08
2023-04-26T17:27:39.717Z,10.01
2023-04-26T17:30:09.290Z,9.92
2023-04-26T17:32:38.724Z,9.83
2023-04-26T17:35:09.562Z,9.75
2023-04-26T17:37:36.893Z,9.69
2023-04-26T17:40:06.928Z,9.63
2023-04-26T17:42:34.488Z,9.60
2023-04-26T17:45:02.081Z,9.59
2023-04-26T17:47:29.260Z,9.56
2023-04-26T17:49:56.930Z,9.55
2023-04-26T17:52:24.064Z,9.50
2023-04-26T17:54:52.471Z,9.45
2023-04-26T17:57:23.957Z,9.43
2023-04-26T17:59:52.179Z,9.37
2023-04-26T18:02:19.982Z,9.40
2023-04-26T18:04:47.855Z,9.36
2023-04-26T18:07:16.982Z,9.32
2023-04-26T18:09:44.674Z,9.31
2023-04-26T18:12:11.733Z,9.35
2023-04-26T18:14:45.052Z,9.33
2023-04-26T18:17:13.367Z,9.30
2023-04-26T18:19:42.409Z,9.25
2023-04-26T18:22:09.942Z,9.18
2023-04-26T18:24:37.761Z,9.16
2023-04-26T18:27:04.877Z,9.13
2023-04-26T18:32:16.008Z,9.12
2023-04-26T18:34:44.289Z,9.12
2023-04-26T18:37:16.312Z,9.13
2023-04-26T18:39:45.446Z,9.17
2023-04-26T18:42:16.356Z,9.10
2023-04-26T18:44:52.454Z,9.07
2023-04-26T18:47:21.373Z,9.01
2023-04-26T18:49:49.343Z,9.03
2023-04-26T18:52:16.567Z,9.02
2023-04-26T18:54:44.204Z,8.99
2023-04-26T18:57:11.679Z,8.98
2023-04-26T18:59:40.257Z,8.98
2023-04-26T19:02:07.942Z,8.88
2023-04-26T19:04:35.955Z,8.83
2023-04-26T19:07:04.681Z,8.80
2023-04-26T19:09:53.681Z,8.77
2023-04-26T19:12:25.492Z,8.72
2023-04-26T19:14:54.365Z,8.68
2023-04-26T19:17:23.006Z,8.66
2023-04-26T19:19:54.876Z,8.62
2023-04-26T19:22:23.220Z,8.56
2023-04-26T19:24:55.853Z,8.52
2023-04-26T19:27:24.749Z,8.54
2023-04-26T19:29:58.050Z,8.53
2023-04-26T19:32:34.711Z,8.48
2023-04-26T19:35:06.218Z,8.42
2023-04-26T19:37:33.468Z,8.37
2023-04-26T19:40:01.067Z,8.38
2023-04-26T19:42:28.484Z,8.39
2023-04-26T19:44:56.130Z,8.34
2023-04-26T19:47:23.578Z,8.35
2023-04-26T19:49:53.096Z,8.32
2023-04-26T19:52:20.283Z,8.28
2023-04-26T19:54:47.850Z,8.20
2023-04-26T19:57:16.861Z,8.16
2023-04-26T19:59:44.320Z,8.16
2023-04-26T20:02:11.761Z,8.09
2023-04-26T20:04:45.498Z,8.14
2023-04-26T20:07:12.710Z,8.12
2023-04-26T20:09:40.168Z,8.09
2023-04-26T20:12:07.485Z,8.02
2023-04-26T20:14:35.259Z,8.00
2023-04-26T20:17:04.044Z,7.98
2023-04-26T20:19:31.530Z,7.93
2023-04-26T20:21:58.648Z,7.88
2023-04-26T20:24:28.274Z,7.90
2023-04-26T20:26:59.696Z,7.87
2023-04-26T20:29:27.055Z,7.86
2023-04-26T20:34:50.211Z,7.87
2023-04-26T20:37:17.660Z,7.83
2023-04-26T20:39:45.371Z,7.82
2023-04-26T20:42:12.474Z,7.81
2023-04-26T20:44:43.568Z,7.81
2023-04-26T20:47:10.705Z,7.75
2023-04-26T20:49:38.192Z,7.75
2023-04-26T20:52:05.430Z,7.72
2023-04-26T20:54:33.005Z,7.74
2023-04-26T20:57:03.366Z,7.70
2023-04-26T20:59:32.101Z,7.68
2023-04-26T21:01:59.927Z,7.65
2023-04-26T21:04:27.866Z,7.60
2023-04-26T21:06:55.252Z,7.60
2023-04-26T21:09:23.992Z,7.62
2023-04-26T21:11:51.374Z,7.60
2023-04-26T21:14:18.914Z,7.60
2023-04-26T21:16:46.593Z,7.58
2023-04-26T21:19:14.296Z,7.61
2023-04-26T21:21:41.994Z,7.56
2023-04-26T21:24:10.224Z,7.52
2023-04-26T21:26:37.310Z,7.52
2023-04-26T21:29:10.256Z,7.50
2023-04-26T21:31:37.490Z,7.51
2023-04-26T21:34:04.895Z,7.54
2023-04-26T21:36:32.574Z,7.52
2023-04-26T21:38:59.939Z,7.50
2023-04-26T21:44:12.500Z,7.54
2023-04-26T21:46:39.983Z,7.51
2023-04-26T21:49:07.795Z,7.52
2023-04-26T21:51:35.141Z,7.49
2023-04-26T21:54:06.266Z,7.51
2023-04-26T21:56:35.992Z,7.53
2023-04-26T21:59:03.430Z,7.52
2023-04-26T22:01:31.210Z,7.52
2023-04-26T22:03:59.392Z,7.50
2023-04-26T22:06:27.379Z,7.49
2023-04-26T22:08:55.365Z,7.50
2023-04-26T22:11:22.470Z,7.50
2023-04-26T22:13:50.044Z,7.48
2023-04-26T22:16:17.159Z,7.47
2023-04-26T22:18:45.220Z,7.48
2023-04-26T22:21:13.402Z,7.46
2023-04-26T22:23:41.055Z,7.47
2023-04-26T22:26:08.280Z,7.45
2023-04-26T22:28:35.826Z,7.41
2023-04-26T22:31:02.893Z,7.44
2023-04-26T22:33:30.572Z,7.42
2023-04-26T22:35:58.184Z,7.44
2023-04-26T22:38:26.005Z,7.45
2023-04-26T22:40:53.126Z,7.41
2023-04-26T22:43:22.776Z,7.40
2023-04-26T22:45:50.164Z,7.39
2023-04-26T22:48:18.375Z,7.41
2023-04-26T22:50:48.660Z,7.41
2023-04-26T22:53:16.867Z,7.43
2023-04-26T22:55:44.112Z,7.41
2023-04-26T22:58:11.609Z,7.38
2023-04-26T23:00:38.892Z,7.34
2023-04-26T23:03:06.472Z,7.32
2023-04-26T23:05:34.594Z,7.30
2023-04-26T23:08:02.984Z,7.27
2023-04-26T23:10:30.152Z,7.33
2023-04-26T23:13:01.487Z,7.32
2023-04-26T23:15:28.611Z,7.34
2023-04-26T23:17:57.025Z,7.33
2023-04-26T23:20:24.245Z,7.33
2023-04-26T23:22:52.404Z,7.33
2023-04-26T23:25:20.768Z,7.28
2023-04-26T23:27:48.182Z,7.25
2023-04-26T23:30:16.084Z,7.24
2023-04-26T23:32:43.546Z,7.28
2023-04-26T23:35:10.664Z,7.25
2023-04-26T23:37:38.896Z,7.24
2023-04-26T23:40:07.472Z,7.27
2023-04-26T23:42:34.843Z,7.28
2023-04-26T23:45:03.099Z,7.22
2023-04-26T23:47:31.009Z,7.24
2023-04-26T23:49:59.421Z,7.20
2023-04-26T23:52:27.730Z,7.18
2023-04-26T23:54:54.851Z,7.20
2023-04-26T23:57:23.010Z,7.23
2023-04-26T23:59:52.754Z,7.23
